sensor_id;sensor_type;location;lat;lon;timestamp;temperature;humidity
26107;DHT22;13866;50.748;12.630;2022-09-27T00:01:11;11.20;99.90
26107;DHT22;13866;50.748;12.630;2022-09-27T00:03:37;11.20;99.90
26107;DHT22;13866;50.748;12.630;2022-09-27T00:06:05;11.20;99.90
26107;DHT22;13866;50.748;12.630;2022-09-27T00:08:32;11.20;99.90
26107;DHT22;13866;50.748;12.630;2022-09-27T00:11:00;11.20;99.90
26107;DHT22;13866;50.748;12.630;2022-09-27T00:13:26;11.20;99.90
26107;DHT22;13866;50.748;12.630;2022-09-27T00:15:56;11.20;99.90
26107;DHT22;13866;50.748;12.630;2022-09-27T00:18:22;11.20;99.90
26107;DHT22;13866;50.748;12.630;2022-09-27T00:20:47;11.20;99.90
26107;DHT22;13866;50.748;12.630;2022-09-27T00:23:13;11.20;99.90
26107;DHT22;13866;50.748;12.630;2022-09-27T00:25:38;11.30;99.90
26107;DHT22;13866;50.748;12.630;2022-09-27T00:28:04;11.30;99.90
26107;DHT22;13866;50.748;12.630;2022-09-27T00:30:29;11.30;99.90
26107;DHT22;13866;50.748;12.630;2022-09-27T00:32:55;11.30;99.90
26107;DHT22;13866;50.748;12.630;2022-09-27T00:35:20;11.30;99.90
26107;DHT22;13866;50.748;12.630;2022-09-27T00:37:49;11.30;99.90
26107;DHT22;13866;50.748;12.630;2022-09-27T00:40:15;11.40;99.90
26107;DHT22;13866;50.748;12.630;2022-09-27T00:42:40;11.40;99.90
26107;DHT22;13866;50.748;12.630;2022-09-27T00:45:12;11.40;99.90
26107;DHT22;13866;50.748;12.630;2022-09-27T00:47:47;11.40;99.90
26107;DHT22;13866;50.748;12.630;2022-09-27T00:50:23;11.40;99.90
26107;DHT22;13866;50.748;12.630;2022-09-27T00:53:14;11.30;99.90
26107;DHT22;13866;50.748;12.630;2022-09-27T00:55:50;11.30;99.90
26107;DHT22;13866;50.748;12.630;2022-09-27T00:58:18;11.30;99.90
26107;DHT22;13866;50.748;12.630;2022-09-27T01:00:48;11.30;99.90
26107;DHT22;13866;50.748;12.630;2022-09-27T01:03:35;11.20;99.90
26107;DHT22;13866;50.748;12.630;2022-09-27T01:06:04;11.20;99.90
26107;DHT22;13866;50.748;12.630;2022-09-27T01:08:30;11.10;99.90
26107;DHT22;13866;50.748;12.630;2022-09-27T01:11:13;11.20;99.90
26107;DHT22;13866;50.748;12.630;2022-09-27T01:16:29;11.20;99.90
26107;DHT22;13866;50.748;12.630;2022-09-27T01:19:32;11.20;99.90
26107;DHT22;13866;50.748;12.630;2022-09-27T01:22:17;11.20;99.90
26107;DHT22;13866;50.748;12.630;2022-09-27T01:25:19;11.20;99.90
26107;DHT22;13866;50.748;12.630;2022-09-27T01:30:46;11.10;99.90
26107;DHT22;13866;50.748;12.630;2022-09-27T01:36:37;11.20;99.90
26107;DHT22;13866;50.748;12.630;2022-09-27T01:39:32;11.10;99.90
26107;DHT22;13866;50.748;12.630;2022-09-27T01:42:19;11.20;99.90
26107;DHT22;13866;50.748;12.630;2022-09-27T01:45:16;11.10;99.90
26107;DHT22;13866;50.748;12.630;2022-09-27T01:47:48;11.20;99.90
26107;DHT22;13866;50.748;12.630;2022-09-27T01:50:20;11.20;99.90
26107;DHT22;13866;50.748;12.630;2022-09-27T01:52:58;11.20;99.90
26107;DHT22;13866;50.748;12.630;2022-09-27T01:55:29;11.20;99.90
26107;DHT22;13866;50.748;12.630;2022-09-27T01:58:00;11.10;99.90
26107;DHT22;13866;50.748;12.630;2022-09-27T02:00:27;11.10;99.90
26107;DHT22;13866;50.748;12.630;2022-09-27T02:03:06;11.10;99.90
26107;DHT22;13866;50.748;12.630;2022-09-27T02:06:00;11.10;99.90
26107;DHT22;13866;50.748;12.630;2022-09-27T02:08:35;11.10;99.90
26107;DHT22;13866;50.748;12.630;2022-09-27T02:11:08;11.00;99.90
26107;DHT22;13866;50.748;12.630;2022-09-27T02:16:33;11.10;99.90
26107;DHT22;13866;50.748;12.630;2022-09-27T02:22:05;11.10;99.90
26107;DHT22;13866;50.748;12.630;2022-09-27T02:24:41;11.10;99.90
26107;DHT22;13866;50.748;12.630;2022-09-27T02:27:23;11.00;99.90
26107;DHT22;13866;50.748;12.630;2022-09-27T02:30:18;11.00;99.90
26107;DHT22;13866;50.748;12.630;2022-09-27T02:32:43;11.00;99.90
26107;DHT22;13866;50.748;12.630;2022-09-27T02:35:16;11.00;99.90
26107;DHT22;13866;50.748;12.630;2022-09-27T02:37:43;11.00;99.90
26107;DHT22;13866;50.748;12.630;2022-09-27T02:40:09;11.00;99.90
26107;DHT22;13866;50.748;12.630;2022-09-27T02:42:35;10.90;99.90
26107;DHT22;13866;50.748;12.630;2022-09-27T02:45:03;10.90;99.90
26107;DHT22;13866;50.748;12.630;2022-09-27T02:47:49;10.90;99.90
26107;DHT22;13866;50.748;12.630;2022-09-27T02:50:50;10.90;99.90
26107;DHT22;13866;50.748;12.630;2022-09-27T02:53:30;10.90;99.90
26107;DHT22;13866;50.748;12.630;2022-09-27T02:56:35;10.90;99.90
26107;DHT22;13866;50.748;12.630;2022-09-27T02:59:05;10.80;99.90
26107;DHT22;13866;50.748;12.630;2022-09-27T03:04:44;10.80;99.90
26107;DHT22;13866;50.748;12.630;2022-09-27T03:07:13;10.80;99.90
26107;DHT22;13866;50.748;12.630;2022-09-27T03:09:44;10.70;99.90
26107;DHT22;13866;50.748;12.630;2022-09-27T03:12:11;10.70;99.90
26107;DHT22;13866;50.748;12.630;2022-09-27T03:14:36;10.70;99.90
26107;DHT22;13866;50.748;12.630;2022-09-27T03:17:02;10.60;99.90
26107;DHT22;13866;50.748;12.630;2022-09-27T03:19:27;10.60;99.90
26107;DHT22;13866;50.748;12.630;2022-09-27T03:21:54;10.60;99.90
26107;DHT22;13866;50.748;12.630;2022-09-27T03:24:19;10.50;99.90
26107;DHT22;13866;50.748;12.630;2022-09-27T03:26:44;10.50;99.90
26107;DHT22;13866;50.748;12.630;2022-09-27T03:29:10;10.50;99.90
26107;DHT22;13866;50.748;12.630;2022-09-27T03:31:35;10.40;99.90
26107;DHT22;13866;50.748;12.630;2022-09-27T03:34:01;10.40;99.90
26107;DHT22;13866;50.748;12.630;2022-09-27T03:36:26;10.30;99.90
26107;DHT22;13866;50.748;12.630;2022-09-27T03:38:52;10.30;99.90
26107;DHT22;13866;50.748;12.630;2022-09-27T03:41:17;10.20;99.90
26107;DHT22;13866;50.748;12.630;2022-09-27T03:43:43;10.20;99.90
26107;DHT22;13866;50.748;12.630;2022-09-27T03:46:08;10.10;99.90
26107;DHT22;13866;50.748;12.630;2022-09-27T03:48:34;10.20;99.90
26107;DHT22;13866;50.748;12.630;2022-09-27T03:50:59;10.10;99.90
26107;DHT22;13866;50.748;12.630;2022-09-27T03:53:25;10.10;99.90
26107;DHT22;13866;50.748;12.630;2022-09-27T03:55:50;10.00;99.90
26107;DHT22;13866;50.748;12.630;2022-09-27T03:58:16;10.00;99.90
26107;DHT22;13866;50.748;12.630;2022-09-27T04:00:41;10.00;99.90
26107;DHT22;13866;50.748;12.630;2022-09-27T04:03:08;10.00;99.90
26107;DHT22;13866;50.748;12.630;2022-09-27T04:05:33;10.00;99.90
26107;DHT22;13866;50.748;12.630;2022-09-27T04:07:59;9.90;99.90
26107;DHT22;13866;50.748;12.630;2022-09-27T04:10:25;9.80;99.90
26107;DHT22;13866;50.748;12.630;2022-09-27T04:12:50;9.80;99.90
26107;DHT22;13866;50.748;12.630;2022-09-27T04:15:16;9.80;99.90
26107;DHT22;13866;50.748;12.630;2022-09-27T04:17:41;9.80;99.90
26107;DHT22;13866;50.748;12.630;2022-09-27T04:20:09;9.80;99.90
26107;DHT22;13866;50.748;12.630;2022-09-27T04:22:41;9.80;99.90
26107;DHT22;13866;50.748;12.630;2022-09-27T04:25:08;9.80;99.90
26107;DHT22;13866;50.748;12.630;2022-09-27T04:27:34;9.70;99.90
26107;DHT22;13866;50.748;12.630;2022-09-27T04:30:00;9.60;99.90
26107;DHT22;13866;50.748;12.630;2022-09-27T04:32:26;9.60;99.90
26107;DHT22;13866;50.748;12.630;2022-09-27T04:34:51;9.60;99.90
26107;DHT22;13866;50.748;12.630;2022-09-27T04:37:35;9.60;99.90
26107;DHT22;13866;50.748;12.630;2022-09-27T04:40:02;9.50;99.90
26107;DHT22;13866;50.748;12.630;2022-09-27T04:42:28;9.50;99.90
26107;DHT22;13866;50.748;12.630;2022-09-27T04:44:54;9.50;99.90
26107;DHT22;13866;50.748;12.630;2022-09-27T04:47:19;9.50;99.90
26107;DHT22;13866;50.748;12.630;2022-09-27T04:49:46;9.60;99.90
26107;DHT22;13866;50.748;12.630;2022-09-27T04:52:11;9.60;99.90
26107;DHT22;13866;50.748;12.630;2022-09-27T04:54:37;9.60;99.90
26107;DHT22;13866;50.748;12.630;2022-09-27T04:57:02;9.60;99.90
26107;DHT22;13866;50.748;12.630;2022-09-27T04:59:28;9.70;99.90
26107;DHT22;13866;50.748;12.630;2022-09-27T05:01:55;9.70;99.90
26107;DHT22;13866;50.748;12.630;2022-09-27T05:04:23;9.60;99.90
26107;DHT22;13866;50.748;12.630;2022-09-27T05:06:49;9.70;99.90
26107;DHT22;13866;50.748;12.630;2022-09-27T05:09:14;9.70;99.90
26107;DHT22;13866;50.748;12.630;2022-09-27T05:11:40;9.70;99.90
26107;DHT22;13866;50.748;12.630;2022-09-27T05:14:05;9.70;99.90
26107;DHT22;13866;50.748;12.630;2022-09-27T05:16:32;9.60;99.90
26107;DHT22;13866;50.748;12.630;2022-09-27T05:18:58;9.70;99.90
26107;DHT22;13866;50.748;12.630;2022-09-27T05:21:23;9.60;99.90
26107;DHT22;13866;50.748;12.630;2022-09-27T05:23:49;9.60;99.90
26107;DHT22;13866;50.748;12.630;2022-09-27T05:26:15;9.60;99.90
26107;DHT22;13866;50.748;12.630;2022-09-27T05:28:40;9.60;99.90
26107;DHT22;13866;50.748;12.630;2022-09-27T05:31:08;9.60;99.90
26107;DHT22;13866;50.748;12.630;2022-09-27T05:33:33;9.70;99.90
26107;DHT22;13866;50.748;12.630;2022-09-27T05:35:59;9.60;99.90
26107;DHT22;13866;50.748;12.630;2022-09-27T05:38:26;9.60;99.90
26107;DHT22;13866;50.748;12.630;2022-09-27T05:40:52;9.60;99.90
26107;DHT22;13866;50.748;12.630;2022-09-27T05:43:17;9.60;99.90
26107;DHT22;13866;50.748;12.630;2022-09-27T05:45:43;9.60;99.90
26107;DHT22;13866;50.748;12.630;2022-09-27T05:48:09;9.70;99.90
26107;DHT22;13866;50.748;12.630;2022-09-27T05:50:36;9.60;99.90
26107;DHT22;13866;50.748;12.630;2022-09-27T05:53:03;9.60;99.90
26107;DHT22;13866;50.748;12.630;2022-09-27T05:55:29;9.60;99.90
26107;DHT22;13866;50.748;12.630;2022-09-27T05:58:03;9.70;99.90
26107;DHT22;13866;50.748;12.630;2022-09-27T06:00:29;9.70;99.90
26107;DHT22;13866;50.748;12.630;2022-09-27T06:02:57;9.70;99.90
26107;DHT22;13866;50.748;12.630;2022-09-27T06:05:25;9.70;99.90
26107;DHT22;13866;50.748;12.630;2022-09-27T06:07:51;9.70;99.90
26107;DHT22;13866;50.748;12.630;2022-09-27T06:10:22;9.70;99.90
26107;DHT22;13866;50.748;12.630;2022-09-27T06:12:47;9.70;99.90
26107;DHT22;13866;50.748;12.630;2022-09-27T06:15:14;9.70;99.90
26107;DHT22;13866;50.748;12.630;2022-09-27T06:17:40;9.70;99.90
26107;DHT22;13866;50.748;12.630;2022-09-27T06:20:05;9.80;99.90
26107;DHT22;13866;50.748;12.630;2022-09-27T06:22:33;9.80;99.90
26107;DHT22;13866;50.748;12.630;2022-09-27T06:24:58;9.80;99.90
26107;DHT22;13866;50.748;12.630;2022-09-27T06:27:24;9.80;99.90
26107;DHT22;13866;50.748;12.630;2022-09-27T06:29:50;9.80;99.90
26107;DHT22;13866;50.748;12.630;2022-09-27T06:32:16;9.80;99.90
26107;DHT22;13866;50.748;12.630;2022-09-27T06:34:41;9.80;99.90
26107;DHT22;13866;50.748;12.630;2022-09-27T06:37:07;9.80;99.90
26107;DHT22;13866;50.748;12.630;2022-09-27T06:39:32;9.90;99.90
26107;DHT22;13866;50.748;12.630;2022-09-27T06:41:59;9.90;99.90
26107;DHT22;13866;50.748;12.630;2022-09-27T06:44:24;9.90;99.90
26107;DHT22;13866;50.748;12.630;2022-09-27T06:46:51;9.90;99.90
26107;DHT22;13866;50.748;12.630;2022-09-27T06:49:20;9.90;99.90
26107;DHT22;13866;50.748;12.630;2022-09-27T06:51:47;9.90;99.90
26107;DHT22;13866;50.748;12.630;2022-09-27T06:54:12;10.00;99.90
26107;DHT22;13866;50.748;12.630;2022-09-27T06:56:38;10.00;99.90
26107;DHT22;13866;50.748;12.630;2022-09-27T06:59:03;10.00;99.90
26107;DHT22;13866;50.748;12.630;2022-09-27T07:01:47;10.00;99.90
26107;DHT22;13866;50.748;12.630;2022-09-27T07:04:13;10.10;99.90
26107;DHT22;13866;50.748;12.630;2022-09-27T07:06:40;10.10;99.90
26107;DHT22;13866;50.748;12.630;2022-09-27T07:09:05;10.10;99.90
26107;DHT22;13866;50.748;12.630;2022-09-27T07:11:34;10.10;99.90
26107;DHT22;13866;50.748;12.630;2022-09-27T07:14:03;10.10;99.90
26107;DHT22;13866;50.748;12.630;2022-09-27T07:16:30;10.10;99.90
26107;DHT22;13866;50.748;12.630;2022-09-27T07:18:56;10.20;99.90
26107;DHT22;13866;50.748;12.630;2022-09-27T07:21:22;10.40;99.90
26107;DHT22;13866;50.748;12.630;2022-09-27T07:23:48;10.50;99.90
26107;DHT22;13866;50.748;12.630;2022-09-27T07:26:14;10.60;99.90
26107;DHT22;13866;50.748;12.630;2022-09-27T07:28:39;10.70;99.90
26107;DHT22;13866;50.748;12.630;2022-09-27T07:31:11;10.70;99.90
26107;DHT22;13866;50.748;12.630;2022-09-27T07:33:36;10.90;99.90
26107;DHT22;13866;50.748;12.630;2022-09-27T07:36:07;11.00;99.90
26107;DHT22;13866;50.748;12.630;2022-09-27T07:38:33;10.90;99.90
26107;DHT22;13866;50.748;12.630;2022-09-27T07:41:04;10.70;99.90
26107;DHT22;13866;50.748;12.630;2022-09-27T07:43:30;10.70;99.90
26107;DHT22;13866;50.748;12.630;2022-09-27T07:45:56;10.90;99.90
26107;DHT22;13866;50.748;12.630;2022-09-27T07:48:22;11.10;99.90
26107;DHT22;13866;50.748;12.630;2022-09-27T07:50:47;11.10;99.90
26107;DHT22;13866;50.748;12.630;2022-09-27T07:53:13;11.30;99.90
26107;DHT22;13866;50.748;12.630;2022-09-27T07:55:39;11.40;99.90
26107;DHT22;13866;50.748;12.630;2022-09-27T07:58:07;11.40;99.90
26107;DHT22;13866;50.748;12.630;2022-09-27T08:00:34;11.40;99.90
26107;DHT22;13866;50.748;12.630;2022-09-27T08:03:07;11.20;99.90
26107;DHT22;13866;50.748;12.630;2022-09-27T08:05:33;11.30;99.90
26107;DHT22;13866;50.748;12.630;2022-09-27T08:07:59;11.30;99.90
26107;DHT22;13866;50.748;12.630;2022-09-27T08:10:25;11.20;99.90
26107;DHT22;13866;50.748;12.630;2022-09-27T08:13:03;11.10;99.90
26107;DHT22;13866;50.748;12.630;2022-09-27T08:15:30;11.10;99.90
26107;DHT22;13866;50.748;12.630;2022-09-27T08:17:56;11.00;99.90
26107;DHT22;13866;50.748;12.630;2022-09-27T08:20:22;11.00;99.90
26107;DHT22;13866;50.748;12.630;2022-09-27T08:22:47;11.10;99.90
26107;DHT22;13866;50.748;12.630;2022-09-27T08:25:13;10.90;99.90
26107;DHT22;13866;50.748;12.630;2022-09-27T08:27:39;10.80;99.90
26107;DHT22;13866;50.748;12.630;2022-09-27T08:30:05;10.80;99.90
26107;DHT22;13866;50.748;12.630;2022-09-27T08:32:31;10.90;99.90
26107;DHT22;13866;50.748;12.630;2022-09-27T08:34:57;10.90;99.90
26107;DHT22;13866;50.748;12.630;2022-09-27T08:37:24;10.80;99.90
26107;DHT22;13866;50.748;12.630;2022-09-27T08:39:49;10.90;99.90
26107;DHT22;13866;50.748;12.630;2022-09-27T08:42:48;10.80;99.90
26107;DHT22;13866;50.748;12.630;2022-09-27T08:45:21;10.90;99.90
26107;DHT22;13866;50.748;12.630;2022-09-27T08:47:53;10.90;99.90
26107;DHT22;13866;50.748;12.630;2022-09-27T08:50:27;11.00;99.90
26107;DHT22;13866;50.748;12.630;2022-09-27T08:52:57;10.90;99.90
26107;DHT22;13866;50.748;12.630;2022-09-27T08:55:37;10.90;99.90
26107;DHT22;13866;50.748;12.630;2022-09-27T08:58:15;10.70;99.90
26107;DHT22;13866;50.748;12.630;2022-09-27T09:00:43;10.70;99.90
26107;DHT22;13866;50.748;12.630;2022-09-27T09:03:17;10.60;99.90
26107;DHT22;13866;50.748;12.630;2022-09-27T09:05:51;10.70;99.90
26107;DHT22;13866;50.748;12.630;2022-09-27T09:08:38;10.80;99.90
26107;DHT22;13866;50.748;12.630;2022-09-27T09:14:30;10.60;99.90
26107;DHT22;13866;50.748;12.630;2022-09-27T09:17:40;10.40;99.90
26107;DHT22;13866;50.748;12.630;2022-09-27T09:26:31;9.50;99.90
26107;DHT22;13866;50.748;12.630;2022-09-27T09:32:05;9.50;99.90
26107;DHT22;13866;50.748;12.630;2022-09-27T09:34:38;9.60;99.90
26107;DHT22;13866;50.748;12.630;2022-09-27T09:37:42;9.60;99.90
26107;DHT22;13866;50.748;12.630;2022-09-27T09:43:12;9.60;99.90
26107;DHT22;13866;50.748;12.630;2022-09-27T09:45:44;9.50;99.90
26107;DHT22;13866;50.748;12.630;2022-09-27T09:53:15;9.70;99.90
26107;DHT22;13866;50.748;12.630;2022-09-27T09:55:47;9.70;99.90
26107;DHT22;13866;50.748;12.630;2022-09-27T09:58:19;9.80;99.90
26107;DHT22;13866;50.748;12.630;2022-09-27T10:00:46;9.90;99.90
26107;DHT22;13866;50.748;12.630;2022-09-27T10:03:12;10.00;99.90
26107;DHT22;13866;50.748;12.630;2022-09-27T10:05:42;10.10;99.90
26107;DHT22;13866;50.748;12.630;2022-09-27T10:08:14;9.90;99.90
26107;DHT22;13866;50.748;12.630;2022-09-27T10:10:41;9.90;99.90
26107;DHT22;13866;50.748;12.630;2022-09-27T10:13:15;9.90;99.90
26107;DHT22;13866;50.748;12.630;2022-09-27T10:15:43;9.80;99.90
26107;DHT22;13866;50.748;12.630;2022-09-27T10:18:16;9.90;99.90
26107;DHT22;13866;50.748;12.630;2022-09-27T10:20:51;10.00;99.90
26107;DHT22;13866;50.748;12.630;2022-09-27T10:23:21;9.90;99.90
26107;DHT22;13866;50.748;12.630;2022-09-27T10:25:58;10.00;99.90
26107;DHT22;13866;50.748;12.630;2022-09-27T10:28:39;10.00;99.90
26107;DHT22;13866;50.748;12.630;2022-09-27T10:31:11;9.90;99.90
26107;DHT22;13866;50.748;12.630;2022-09-27T10:33:49;9.90;99.90
26107;DHT22;13866;50.748;12.630;2022-09-27T10:36:29;9.80;99.90
26107;DHT22;13866;50.748;12.630;2022-09-27T10:38:57;10.00;99.90
26107;DHT22;13866;50.748;12.630;2022-09-27T10:41:37;9.90;99.90
26107;DHT22;13866;50.748;12.630;2022-09-27T10:46:42;9.80;99.90
26107;DHT22;13866;50.748;12.630;2022-09-27T10:49:26;9.80;99.90
26107;DHT22;13866;50.748;12.630;2022-09-27T10:52:01;9.80;99.90
26107;DHT22;13866;50.748;12.630;2022-09-27T10:54:30;9.80;99.90
26107;DHT22;13866;50.748;12.630;2022-09-27T10:59:29;9.60;99.90
26107;DHT22;13866;50.748;12.630;2022-09-27T11:01:56;9.60;99.90
26107;DHT22;13866;50.748;12.630;2022-09-27T11:04:31;9.70;99.90
26107;DHT22;13866;50.748;12.630;2022-09-27T11:07:12;9.80;99.90
26107;DHT22;13866;50.748;12.630;2022-09-27T11:13:08;9.90;99.90
26107;DHT22;13866;50.748;12.630;2022-09-27T11:16:04;9.90;99.90
26107;DHT22;13866;50.748;12.630;2022-09-27T11:19:06;9.80;99.90
26107;DHT22;13866;50.748;12.630;2022-09-27T11:22:07;9.80;99.90
26107;DHT22;13866;50.748;12.630;2022-09-27T11:25:05;9.90;99.90
26107;DHT22;13866;50.748;12.630;2022-09-27T11:28:01;9.90;99.90
26107;DHT22;13866;50.748;12.630;2022-09-27T11:30:44;9.90;99.90
26107;DHT22;13866;50.748;12.630;2022-09-27T11:33:29;9.90;99.90
26107;DHT22;13866;50.748;12.630;2022-09-27T11:36:06;10.00;99.90
26107;DHT22;13866;50.748;12.630;2022-09-27T11:38:51;10.10;99.90
26107;DHT22;13866;50.748;12.630;2022-09-27T11:46:55;10.30;99.90
26107;DHT22;13866;50.748;12.630;2022-09-27T11:49:27;10.40;99.90
26107;DHT22;13866;50.748;12.630;2022-09-27T11:52:16;10.40;99.90
26107;DHT22;13866;50.748;12.630;2022-09-27T11:57:35;10.50;99.90
26107;DHT22;13866;50.748;12.630;2022-09-27T12:03:03;10.50;99.90
26107;DHT22;13866;50.748;12.630;2022-09-27T12:05:49;10.70;99.90
26107;DHT22;13866;50.748;12.630;2022-09-27T12:14:10;11.40;99.90
26107;DHT22;13866;50.748;12.630;2022-09-27T12:16:41;11.70;99.90
26107;DHT22;13866;50.748;12.630;2022-09-27T12:19:27;11.60;99.90
26107;DHT22;13866;50.748;12.630;2022-09-27T12:21:57;11.60;99.90
26107;DHT22;13866;50.748;12.630;2022-09-27T12:24:25;11.40;99.90
26107;DHT22;13866;50.748;12.630;2022-09-27T12:26:57;11.30;99.90
26107;DHT22;13866;50.748;12.630;2022-09-27T12:29:31;11.30;99.90
26107;DHT22;13866;50.748;12.630;2022-09-27T12:32:23;11.20;99.90
26107;DHT22;13866;50.748;12.630;2022-09-27T12:42:24;10.00;99.90
26107;DHT22;13866;50.748;12.630;2022-09-27T12:44:52;10.00;99.90
26107;DHT22;13866;50.748;12.630;2022-09-27T12:47:37;10.00;99.90
26107;DHT22;13866;50.748;12.630;2022-09-27T12:52:42;10.30;99.90
26107;DHT22;13866;50.748;12.630;2022-09-27T12:55:34;10.70;99.90
26107;DHT22;13866;50.748;12.630;2022-09-27T12:58:16;11.30;99.90
26107;DHT22;13866;50.748;12.630;2022-09-27T13:01:13;11.90;99.90
26107;DHT22;13866;50.748;12.630;2022-09-27T13:06:28;12.20;99.90
26107;DHT22;13866;50.748;12.630;2022-09-27T13:09:15;12.20;99.90
26107;DHT22;13866;50.748;12.630;2022-09-27T13:12:08;12.10;99.90
26107;DHT22;13866;50.748;12.630;2022-09-27T13:15:00;11.90;99.90
26107;DHT22;13866;50.748;12.630;2022-09-27T13:22:59;11.40;99.90
26107;DHT22;13866;50.748;12.630;2022-09-27T13:25:47;11.20;99.90
26107;DHT22;13866;50.748;12.630;2022-09-27T13:30:53;10.90;99.90
26107;DHT22;13866;50.748;12.630;2022-09-27T13:36:04;10.60;99.90
26107;DHT22;13866;50.748;12.630;2022-09-27T13:38:30;10.40;99.90
26107;DHT22;13866;50.748;12.630;2022-09-27T13:41:13;10.10;99.90
26107;DHT22;13866;50.748;12.630;2022-09-27T13:43:59;9.90;99.90
26107;DHT22;13866;50.748;12.630;2022-09-27T13:46:30;9.60;99.90
26107;DHT22;13866;50.748;12.630;2022-09-27T13:49:02;9.50;99.90
26107;DHT22;13866;50.748;12.630;2022-09-27T13:51:50;9.60;99.90
26107;DHT22;13866;50.748;12.630;2022-09-27T13:56:59;9.80;99.90
26107;DHT22;13866;50.748;12.630;2022-09-27T13:59:31;9.80;99.90
26107;DHT22;13866;50.748;12.630;2022-09-27T14:02:26;9.90;99.90
26107;DHT22;13866;50.748;12.630;2022-09-27T14:04:55;10.00;99.90
26107;DHT22;13866;50.748;12.630;2022-09-27T14:07:43;10.00;99.90
26107;DHT22;13866;50.748;12.630;2022-09-27T14:10:13;10.00;99.90
26107;DHT22;13866;50.748;12.630;2022-09-27T14:12:40;10.00;99.90
26107;DHT22;13866;50.748;12.630;2022-09-27T14:15:08;9.90;99.90
26107;DHT22;13866;50.748;12.630;2022-09-27T14:17:35;9.80;99.90
26107;DHT22;13866;50.748;12.630;2022-09-27T14:20:27;9.70;99.90
26107;DHT22;13866;50.748;12.630;2022-09-27T14:22:53;9.70;99.90
26107;DHT22;13866;50.748;12.630;2022-09-27T14:25:19;9.60;99.90
26107;DHT22;13866;50.748;12.630;2022-09-27T14:27:44;9.50;99.90
26107;DHT22;13866;50.748;12.630;2022-09-27T14:30:15;9.40;99.90
26107;DHT22;13866;50.748;12.630;2022-09-27T14:32:49;9.30;99.90
26107;DHT22;13866;50.748;12.630;2022-09-27T14:35:20;9.30;99.90
26107;DHT22;13866;50.748;12.630;2022-09-27T14:38:16;9.20;99.90
26107;DHT22;13866;50.748;12.630;2022-09-27T14:40:59;9.10;99.90
26107;DHT22;13866;50.748;12.630;2022-09-27T14:43:26;9.10;99.90
26107;DHT22;13866;50.748;12.630;2022-09-27T14:45:57;9.10;99.90
26107;DHT22;13866;50.748;12.630;2022-09-27T14:48:33;9.10;99.90
26107;DHT22;13866;50.748;12.630;2022-09-27T14:51:14;9.10;99.90
26107;DHT22;13866;50.748;12.630;2022-09-27T14:53:50;9.10;99.90
26107;DHT22;13866;50.748;12.630;2022-09-27T14:56:25;9.20;99.90
26107;DHT22;13866;50.748;12.630;2022-09-27T14:59:00;9.20;99.90
26107;DHT22;13866;50.748;12.630;2022-09-27T15:01:27;9.20;99.90
26107;DHT22;13866;50.748;12.630;2022-09-27T15:03:54;9.30;99.90
26107;DHT22;13866;50.748;12.630;2022-09-27T15:06:20;9.40;99.90
26107;DHT22;13866;50.748;12.630;2022-09-27T15:08:46;9.50;99.90
26107;DHT22;13866;50.748;12.630;2022-09-27T15:11:14;9.60;99.90
26107;DHT22;13866;50.748;12.630;2022-09-27T15:13:41;9.80;99.90
26107;DHT22;13866;50.748;12.630;2022-09-27T15:16:10;9.80;99.90
26107;DHT22;13866;50.748;12.630;2022-09-27T15:18:42;9.80;99.90
26107;DHT22;13866;50.748;12.630;2022-09-27T15:21:10;9.80;99.90
26107;DHT22;13866;50.748;12.630;2022-09-27T15:23:39;9.80;99.90
26107;DHT22;13866;50.748;12.630;2022-09-27T15:26:15;9.80;99.90
26107;DHT22;13866;50.748;12.630;2022-09-27T15:28:47;9.80;99.90
26107;DHT22;13866;50.748;12.630;2022-09-27T15:31:14;9.70;99.90
26107;DHT22;13866;50.748;12.630;2022-09-27T15:33:40;9.60;99.90
26107;DHT22;13866;50.748;12.630;2022-09-27T15:36:09;9.50;99.90
26107;DHT22;13866;50.748;12.630;2022-09-27T15:38:44;9.50;99.90
26107;DHT22;13866;50.748;12.630;2022-09-27T15:41:13;9.50;99.90
26107;DHT22;13866;50.748;12.630;2022-09-27T15:43:43;9.50;99.90
26107;DHT22;13866;50.748;12.630;2022-09-27T15:46:34;9.40;99.90
26107;DHT22;13866;50.748;12.630;2022-09-27T15:49:20;9.40;99.90
26107;DHT22;13866;50.748;12.630;2022-09-27T15:51:49;9.50;99.90
26107;DHT22;13866;50.748;12.630;2022-09-27T15:54:17;9.60;99.90
26107;DHT22;13866;50.748;12.630;2022-09-27T15:56:43;9.60;99.90
26107;DHT22;13866;50.748;12.630;2022-09-27T15:59:23;9.60;99.90
26107;DHT22;13866;50.748;12.630;2022-09-27T16:01:57;9.60;99.90
26107;DHT22;13866;50.748;12.630;2022-09-27T16:04:27;9.50;99.90
26107;DHT22;13866;50.748;12.630;2022-09-27T16:06:56;9.50;99.90
26107;DHT22;13866;50.748;12.630;2022-09-27T16:09:22;9.50;99.90
26107;DHT22;13866;50.748;12.630;2022-09-27T16:11:48;9.50;99.90
26107;DHT22;13866;50.748;12.630;2022-09-27T16:14:15;9.50;99.90
26107;DHT22;13866;50.748;12.630;2022-09-27T16:16:48;9.50;99.90
26107;DHT22;13866;50.748;12.630;2022-09-27T16:19:15;9.50;99.90
26107;DHT22;13866;50.748;12.630;2022-09-27T16:21:40;9.50;99.90
26107;DHT22;13866;50.748;12.630;2022-09-27T16:24:10;9.40;99.90
26107;DHT22;13866;50.748;12.630;2022-09-27T16:26:36;9.60;99.90
26107;DHT22;13866;50.748;12.630;2022-09-27T16:29:02;9.70;99.90
26107;DHT22;13866;50.748;12.630;2022-09-27T16:31:27;9.60;99.90
26107;DHT22;13866;50.748;12.630;2022-09-27T16:33:53;9.50;99.90
26107;DHT22;13866;50.748;12.630;2022-09-27T16:36:18;9.40;99.90
26107;DHT22;13866;50.748;12.630;2022-09-27T16:38:52;8.90;99.90
26107;DHT22;13866;50.748;12.630;2022-09-27T16:41:18;8.60;99.90
26107;DHT22;13866;50.748;12.630;2022-09-27T16:43:45;8.30;99.90
26107;DHT22;13866;50.748;12.630;2022-09-27T16:46:11;8.10;99.90
26107;DHT22;13866;50.748;12.630;2022-09-27T16:48:39;8.00;99.90
26107;DHT22;13866;50.748;12.630;2022-09-27T16:51:12;7.80;99.90
26107;DHT22;13866;50.748;12.630;2022-09-27T16:53:57;7.80;99.90
26107;DHT22;13866;50.748;12.630;2022-09-27T16:56:23;7.70;99.90
26107;DHT22;13866;50.748;12.630;2022-09-27T16:58:49;7.70;99.90
26107;DHT22;13866;50.748;12.630;2022-09-27T17:01:14;7.80;99.90
26107;DHT22;13866;50.748;12.630;2022-09-27T17:03:47;7.80;99.90
26107;DHT22;13866;50.748;12.630;2022-09-27T17:06:14;7.90;99.90
26107;DHT22;13866;50.748;12.630;2022-09-27T17:08:39;7.80;99.90
26107;DHT22;13866;50.748;12.630;2022-09-27T17:11:04;7.80;99.90
26107;DHT22;13866;50.748;12.630;2022-09-27T17:13:31;7.90;99.90
26107;DHT22;13866;50.748;12.630;2022-09-27T17:15:57;7.90;99.90
26107;DHT22;13866;50.748;12.630;2022-09-27T17:18:22;8.00;99.90
26107;DHT22;13866;50.748;12.630;2022-09-27T17:20:48;7.90;99.90